sensor_id;sensor_type;location;lat;lon;timestamp;P1;durP1;ratioP1;P2;durP2;ratioP2
3843;SDS011;1937;51.444;6.484;2023-03-23T00:00:04;4.07;;;2.57;;
3843;SDS011;1937;51.444;6.484;2023-03-23T00:02:35;5.03;;;3.40;;
3843;SDS011;1937;51.444;6.484;2023-03-23T00:05:05;6.63;;;3.37;;
3843;SDS011;1937;51.444;6.484;2023-03-23T00:07:34;4.67;;;3.20;;
3843;SDS011;1937;51.444;6.484;2023-03-23T00:10:03;4.23;;;3.80;;
3843;SDS011;1937;51.444;6.484;2023-03-23T00:12:32;4.57;;;3.10;;
3843;SDS011;1937;51.444;6.484;2023-03-23T00:15:01;4.33;;;2.77;;
3843;SDS011;1937;51.444;6.484;2023-03-23T00:17:33;2.90;;;2.57;;
3843;SDS011;1937;51.444;6.484;2023-03-23T00:20:03;4.13;;;2.70;;
3843;SDS011;1937;51.444;6.484;2023-03-23T00:22:34;3.40;;;3.10;;
3843;SDS011;1937;51.444;6.484;2023-03-23T00:25:04;3.57;;;2.70;;
3843;SDS011;1937;51.444;6.484;2023-03-23T00:27:34;4.43;;;2.70;;
3843;SDS011;1937;51.444;6.484;2023-03-23T00:30:03;7.03;;;3.43;;
3843;SDS011;1937;51.444;6.484;2023-03-23T00:32:35;4.73;;;3.03;;
3843;SDS011;1937;51.444;6.484;2023-03-23T00:35:04;5.97;;;4.10;;
3843;SDS011;1937;51.444;6.484;2023-03-23T00:37:33;5.07;;;3.07;;
3843;SDS011;1937;51.444;6.484;2023-03-23T00:40:03;4.37;;;3.77;;
3843;SDS011;1937;51.444;6.484;2023-03-23T00:42:34;3.53;;;2.60;;
3843;SDS011;1937;51.444;6.484;2023-03-23T00:45:03;4.70;;;2.80;;
3843;SDS011;1937;51.444;6.484;2023-03-23T00:47:37;3.67;;;2.90;;
3843;SDS011;1937;51.444;6.484;2023-03-23T00:50:03;3.67;;;2.20;;
3843;SDS011;1937;51.444;6.484;2023-03-23T00:52:31;3.73;;;3.07;;
3843;SDS011;1937;51.444;6.484;2023-03-23T00:54:57;4.90;;;2.83;;
3843;SDS011;1937;51.444;6.484;2023-03-23T00:57:24;3.60;;;3.00;;
3843;SDS011;1937;51.444;6.484;2023-03-23T00:59:51;5.10;;;3.43;;
3843;SDS011;1937;51.444;6.484;2023-03-23T01:02:17;5.43;;;3.10;;
3843;SDS011;1937;51.444;6.484;2023-03-23T01:04:45;3.80;;;3.40;;
3843;SDS011;1937;51.444;6.484;2023-03-23T01:07:17;5.70;;;3.60;;
3843;SDS011;1937;51.444;6.484;2023-03-23T01:09:44;3.63;;;3.10;;
3843;SDS011;1937;51.444;6.484;2023-03-23T01:12:11;4.20;;;3.47;;
3843;SDS011;1937;51.444;6.484;2023-03-23T01:14:37;8.50;;;3.13;;
3843;SDS011;1937;51.444;6.484;2023-03-23T01:17:04;5.13;;;2.90;;
3843;SDS011;1937;51.444;6.484;2023-03-23T01:19:31;6.00;;;3.27;;
3843;SDS011;1937;51.444;6.484;2023-03-23T01:21:59;4.20;;;3.63;;
3843;SDS011;1937;51.444;6.484;2023-03-23T01:24:26;4.13;;;3.00;;
3843;SDS011;1937;51.444;6.484;2023-03-23T01:26:52;3.40;;;3.03;;
3843;SDS011;1937;51.444;6.484;2023-03-23T01:29:21;5.30;;;3.30;;
3843;SDS011;1937;51.444;6.484;2023-03-23T01:31:49;6.63;;;3.20;;
3843;SDS011;1937;51.444;6.484;2023-03-23T01:34:18;6.93;;;3.17;;
3843;SDS011;1937;51.444;6.484;2023-03-23T01:36:47;4.03;;;3.30;;
3843;SDS011;1937;51.444;6.484;2023-03-23T01:39:16;7.47;;;3.23;;
3843;SDS011;1937;51.444;6.484;2023-03-23T01:41:45;4.90;;;3.50;;
3843;SDS011;1937;51.444;6.484;2023-03-23T01:47:28;4.20;;;3.00;;
3843;SDS011;1937;51.444;6.484;2023-03-23T01:49:56;3.73;;;2.93;;
3843;SDS011;1937;51.444;6.484;2023-03-23T01:52:26;5.80;;;3.53;;
3843;SDS011;1937;51.444;6.484;2023-03-23T01:54:57;3.47;;;2.80;;
3843;SDS011;1937;51.444;6.484;2023-03-23T01:57:27;4.00;;;3.30;;
3843;SDS011;1937;51.444;6.484;2023-03-23T01:59:56;4.30;;;2.90;;
3843;SDS011;1937;51.444;6.484;2023-03-23T02:02:32;4.60;;;3.70;;
3843;SDS011;1937;51.444;6.484;2023-03-23T02:05:04;3.23;;;2.27;;
3843;SDS011;1937;51.444;6.484;2023-03-23T02:07:39;4.73;;;4.10;;
3843;SDS011;1937;51.444;6.484;2023-03-23T02:10:09;4.33;;;3.50;;
3843;SDS011;1937;51.444;6.484;2023-03-23T02:12:37;5.70;;;3.13;;
3843;SDS011;1937;51.444;6.484;2023-03-23T02:15:06;6.13;;;2.87;;
3843;SDS011;1937;51.444;6.484;2023-03-23T02:17:36;4.53;;;3.27;;
3843;SDS011;1937;51.444;6.484;2023-03-23T02:20:13;7.47;;;3.37;;
3843;SDS011;1937;51.444;6.484;2023-03-23T02:23:00;5.20;;;3.40;;
3843;SDS011;1937;51.444;6.484;2023-03-23T02:25:56;4.30;;;3.00;;
3843;SDS011;1937;51.444;6.484;2023-03-23T02:28:44;3.63;;;3.23;;
3843;SDS011;1937;51.444;6.484;2023-03-23T02:31:32;6.00;;;3.40;;
3843;SDS011;1937;51.444;6.484;2023-03-23T02:34:11;6.63;;;3.53;;
3843;SDS011;1937;51.444;6.484;2023-03-23T02:36:44;4.10;;;2.97;;
3843;SDS011;1937;51.444;6.484;2023-03-23T02:39:18;6.37;;;3.10;;
3843;SDS011;1937;51.444;6.484;2023-03-23T02:41:50;8.70;;;3.80;;
3843;SDS011;1937;51.444;6.484;2023-03-23T02:44:22;4.13;;;3.20;;
3843;SDS011;1937;51.444;6.484;2023-03-23T02:46:55;4.20;;;3.37;;
3843;SDS011;1937;51.444;6.484;2023-03-23T02:49:27;3.97;;;3.07;;
3843;SDS011;1937;51.444;6.484;2023-03-23T02:51:58;5.50;;;2.80;;
3843;SDS011;1937;51.444;6.484;2023-03-23T02:54:30;4.40;;;2.90;;
3843;SDS011;1937;51.444;6.484;2023-03-23T02:57:00;6.63;;;3.00;;
3843;SDS011;1937;51.444;6.484;2023-03-23T02:59:29;5.93;;;3.30;;
3843;SDS011;1937;51.444;6.484;2023-03-23T03:02:00;4.53;;;2.90;;
3843;SDS011;1937;51.444;6.484;2023-03-23T03:04:32;3.50;;;2.97;;
3843;SDS011;1937;51.444;6.484;2023-03-23T03:10:01;7.10;;;3.57;;
3843;SDS011;1937;51.444;6.484;2023-03-23T03:12:34;4.90;;;3.37;;
3843;SDS011;1937;51.444;6.484;2023-03-23T03:15:12;4.60;;;3.33;;
3843;SDS011;1937;51.444;6.484;2023-03-23T03:17:49;7.83;;;3.50;;
3843;SDS011;1937;51.444;6.484;2023-03-23T03:20:23;4.30;;;3.20;;
3843;SDS011;1937;51.444;6.484;2023-03-23T03:22:54;3.03;;;2.80;;
3843;SDS011;1937;51.444;6.484;2023-03-23T03:25:25;3.70;;;3.00;;
3843;SDS011;1937;51.444;6.484;2023-03-23T03:27:54;7.43;;;3.70;;
3843;SDS011;1937;51.444;6.484;2023-03-23T03:30:25;5.37;;;2.97;;
3843;SDS011;1937;51.444;6.484;2023-03-23T03:32:57;3.70;;;3.23;;
3843;SDS011;1937;51.444;6.484;2023-03-23T03:35:29;3.67;;;3.00;;
3843;SDS011;1937;51.444;6.484;2023-03-23T03:38:04;2.70;;;2.50;;
3843;SDS011;1937;51.444;6.484;2023-03-23T03:40:34;2.90;;;2.47;;
3843;SDS011;1937;51.444;6.484;2023-03-23T03:43:04;3.73;;;2.83;;
3843;SDS011;1937;51.444;6.484;2023-03-23T03:45:33;4.60;;;2.73;;
3843;SDS011;1937;51.444;6.484;2023-03-23T03:48:01;4.03;;;2.60;;
3843;SDS011;1937;51.444;6.484;2023-03-23T03:50:30;3.80;;;2.73;;
3843;SDS011;1937;51.444;6.484;2023-03-23T03:52:59;3.80;;;2.70;;
3843;SDS011;1937;51.444;6.484;2023-03-23T03:55:28;5.17;;;2.70;;
3843;SDS011;1937;51.444;6.484;2023-03-23T03:58:00;3.67;;;2.53;;
3843;SDS011;1937;51.444;6.484;2023-03-23T04:00:29;4.73;;;2.60;;
3843;SDS011;1937;51.444;6.484;2023-03-23T04:02:58;3.83;;;2.90;;
3843;SDS011;1937;51.444;6.484;2023-03-23T04:05:26;5.03;;;2.67;;
3843;SDS011;1937;51.444;6.484;2023-03-23T04:07:56;2.80;;;2.57;;
3843;SDS011;1937;51.444;6.484;2023-03-23T04:10:26;4.70;;;2.40;;
3843;SDS011;1937;51.444;6.484;2023-03-23T04:12:56;5.50;;;3.20;;
3843;SDS011;1937;51.444;6.484;2023-03-23T04:15:25;3.73;;;3.03;;
3843;SDS011;1937;51.444;6.484;2023-03-23T04:17:53;3.50;;;2.60;;
3843;SDS011;1937;51.444;6.484;2023-03-23T04:20:23;4.77;;;2.50;;
3843;SDS011;1937;51.444;6.484;2023-03-23T04:22:52;3.80;;;3.00;;
3843;SDS011;1937;51.444;6.484;2023-03-23T04:25:22;3.20;;;2.77;;
3843;SDS011;1937;51.444;6.484;2023-03-23T04:27:52;3.90;;;2.90;;
3843;SDS011;1937;51.444;6.484;2023-03-23T04:30:23;6.37;;;3.37;;
3843;SDS011;1937;51.444;6.484;2023-03-23T04:32:52;3.50;;;2.80;;
3843;SDS011;1937;51.444;6.484;2023-03-23T04:35:21;3.77;;;2.40;;
3843;SDS011;1937;51.444;6.484;2023-03-23T04:37:51;5.63;;;3.67;;
3843;SDS011;1937;51.444;6.484;2023-03-23T04:40:19;5.63;;;2.60;;
3843;SDS011;1937;51.444;6.484;2023-03-23T04:42:50;8.20;;;2.57;;
3843;SDS011;1937;51.444;6.484;2023-03-23T04:45:22;4.07;;;2.90;;
3843;SDS011;1937;51.444;6.484;2023-03-23T04:47:51;2.97;;;2.70;;
3843;SDS011;1937;51.444;6.484;2023-03-23T04:50:22;3.67;;;2.17;;
3843;SDS011;1937;51.444;6.484;2023-03-23T04:52:57;3.23;;;2.60;;
3843;SDS011;1937;51.444;6.484;2023-03-23T04:55:29;3.73;;;2.90;;
3843;SDS011;1937;51.444;6.484;2023-03-23T04:58:02;3.90;;;2.70;;
3843;SDS011;1937;51.444;6.484;2023-03-23T05:00:31;3.30;;;2.70;;
3843;SDS011;1937;51.444;6.484;2023-03-23T05:03:01;3.57;;;2.83;;
3843;SDS011;1937;51.444;6.484;2023-03-23T05:05:29;6.90;;;3.23;;
3843;SDS011;1937;51.444;6.484;2023-03-23T05:07:59;3.20;;;2.80;;
3843;SDS011;1937;51.444;6.484;2023-03-23T05:10:27;5.03;;;2.70;;
3843;SDS011;1937;51.444;6.484;2023-03-23T05:12:56;5.67;;;3.30;;
3843;SDS011;1937;51.444;6.484;2023-03-23T05:15:25;7.10;;;3.57;;
3843;SDS011;1937;51.444;6.484;2023-03-23T05:17:54;3.20;;;2.63;;
3843;SDS011;1937;51.444;6.484;2023-03-23T05:20:22;5.60;;;3.53;;
3843;SDS011;1937;51.444;6.484;2023-03-23T05:22:51;5.23;;;2.57;;
3843;SDS011;1937;51.444;6.484;2023-03-23T05:25:21;4.27;;;2.83;;
3843;SDS011;1937;51.444;6.484;2023-03-23T05:27:51;4.70;;;2.90;;
3843;SDS011;1937;51.444;6.484;2023-03-23T05:30:19;3.73;;;2.83;;
3843;SDS011;1937;51.444;6.484;2023-03-23T05:32:49;5.20;;;2.80;;
3843;SDS011;1937;51.444;6.484;2023-03-23T05:35:19;2.37;;;2.17;;
3843;SDS011;1937;51.444;6.484;2023-03-23T05:37:47;2.93;;;2.47;;
3843;SDS011;1937;51.444;6.484;2023-03-23T05:40:18;7.47;;;3.70;;
3843;SDS011;1937;51.444;6.484;2023-03-23T05:42:47;4.70;;;2.57;;
3843;SDS011;1937;51.444;6.484;2023-03-23T05:45:15;4.73;;;2.93;;
3843;SDS011;1937;51.444;6.484;2023-03-23T05:47:45;4.50;;;3.13;;
3843;SDS011;1937;51.444;6.484;2023-03-23T05:50:15;4.20;;;2.80;;
3843;SDS011;1937;51.444;6.484;2023-03-23T05:52:44;5.50;;;2.80;;
3843;SDS011;1937;51.444;6.484;2023-03-23T05:55:12;3.37;;;2.90;;
3843;SDS011;1937;51.444;6.484;2023-03-23T05:57:41;5.03;;;3.50;;
3843;SDS011;1937;51.444;6.484;2023-03-23T06:00:10;2.73;;;2.23;;
3843;SDS011;1937;51.444;6.484;2023-03-23T06:02:40;4.30;;;3.03;;
3843;SDS011;1937;51.444;6.484;2023-03-23T06:05:09;8.73;;;3.03;;
3843;SDS011;1937;51.444;6.484;2023-03-23T06:07:40;4.13;;;3.13;;
3843;SDS011;1937;51.444;6.484;2023-03-23T06:10:09;4.23;;;2.53;;
3843;SDS011;1937;51.444;6.484;2023-03-23T06:12:37;4.60;;;2.90;;
3843;SDS011;1937;51.444;6.484;2023-03-23T06:15:06;3.70;;;2.37;;
3843;SDS011;1937;51.444;6.484;2023-03-23T06:17:36;2.87;;;2.23;;
3843;SDS011;1937;51.444;6.484;2023-03-23T06:20:06;4.03;;;3.00;;
3843;SDS011;1937;51.444;6.484;2023-03-23T06:22:36;3.00;;;1.87;;
3843;SDS011;1937;51.444;6.484;2023-03-23T06:25:08;3.53;;;2.67;;
3843;SDS011;1937;51.444;6.484;2023-03-23T06:27:37;3.60;;;2.20;;
3843;SDS011;1937;51.444;6.484;2023-03-23T06:30:06;6.93;;;2.30;;
3843;SDS011;1937;51.444;6.484;2023-03-23T06:32:36;4.23;;;2.27;;
3843;SDS011;1937;51.444;6.484;2023-03-23T06:35:06;3.57;;;2.27;;
3843;SDS011;1937;51.444;6.484;2023-03-23T06:37:36;2.60;;;2.00;;
3843;SDS011;1937;51.444;6.484;2023-03-23T06:40:05;5.40;;;2.67;;
3843;SDS011;1937;51.444;6.484;2023-03-23T06:42:35;6.43;;;2.00;;
3843;SDS011;1937;51.444;6.484;2023-03-23T06:45:05;6.83;;;3.27;;
3843;SDS011;1937;51.444;6.484;2023-03-23T06:47:40;4.73;;;2.40;;
3843;SDS011;1937;51.444;6.484;2023-03-23T06:50:15;3.90;;;2.00;;
3843;SDS011;1937;51.444;6.484;2023-03-23T06:52:45;9.27;;;2.63;;
3843;SDS011;1937;51.444;6.484;2023-03-23T06:55:16;3.57;;;2.03;;
3843;SDS011;1937;51.444;6.484;2023-03-23T06:57:52;5.30;;;1.83;;
3843;SDS011;1937;51.444;6.484;2023-03-23T07:00:26;3.73;;;2.47;;
3843;SDS011;1937;51.444;6.484;2023-03-23T07:02:56;9.47;;;2.60;;
3843;SDS011;1937;51.444;6.484;2023-03-23T07:05:25;6.07;;;2.80;;
3843;SDS011;1937;51.444;6.484;2023-03-23T07:07:53;3.40;;;2.17;;
3843;SDS011;1937;51.444;6.484;2023-03-23T07:10:24;2.90;;;1.80;;
3843;SDS011;1937;51.444;6.484;2023-03-23T07:12:53;5.33;;;2.17;;
3843;SDS011;1937;51.444;6.484;2023-03-23T07:15:22;7.17;;;2.93;;
3843;SDS011;1937;51.444;6.484;2023-03-23T07:17:50;8.60;;;2.70;;
3843;SDS011;1937;51.444;6.484;2023-03-23T07:20:20;2.33;;;2.00;;
3843;SDS011;1937;51.444;6.484;2023-03-23T07:22:49;5.57;;;2.67;;
3843;SDS011;1937;51.444;6.484;2023-03-23T07:25:28;4.27;;;1.90;;
3843;SDS011;1937;51.444;6.484;2023-03-23T07:28:00;4.27;;;2.50;;
3843;SDS011;1937;51.444;6.484;2023-03-23T07:30:29;3.90;;;2.30;;
3843;SDS011;1937;51.444;6.484;2023-03-23T07:32:58;6.87;;;2.20;;
3843;SDS011;1937;51.444;6.484;2023-03-23T07:35:30;3.27;;;2.10;;
3843;SDS011;1937;51.444;6.484;2023-03-23T07:38:00;4.03;;;2.13;;
3843;SDS011;1937;51.444;6.484;2023-03-23T07:40:33;4.63;;;2.23;;
3843;SDS011;1937;51.444;6.484;2023-03-23T07:43:02;8.60;;;2.70;;
3843;SDS011;1937;51.444;6.484;2023-03-23T07:45:32;3.10;;;2.00;;
3843;SDS011;1937;51.444;6.484;2023-03-23T07:48:02;7.30;;;2.70;;
3843;SDS011;1937;51.444;6.484;2023-03-23T07:50:31;3.67;;;2.20;;
3843;SDS011;1937;51.444;6.484;2023-03-23T07:53:02;4.17;;;3.00;;
3843;SDS011;1937;51.444;6.484;2023-03-23T07:55:33;3.97;;;2.70;;
3843;SDS011;1937;51.444;6.484;2023-03-23T07:58:02;3.63;;;2.10;;
3843;SDS011;1937;51.444;6.484;2023-03-23T08:00:35;7.90;;;2.20;;
3843;SDS011;1937;51.444;6.484;2023-03-23T08:03:05;11.47;;;2.93;;
3843;SDS011;1937;51.444;6.484;2023-03-23T08:05:40;5.47;;;2.23;;
3843;SDS011;1937;51.444;6.484;2023-03-23T08:12:09;3.77;;;1.60;;
3843;SDS011;1937;51.444;6.484;2023-03-23T08:14:37;2.30;;;1.97;;
3843;SDS011;1937;51.444;6.484;2023-03-23T08:17:07;4.43;;;2.60;;
3843;SDS011;1937;51.444;6.484;2023-03-23T08:19:35;4.77;;;2.57;;
3843;SDS011;1937;51.444;6.484;2023-03-23T08:22:05;6.03;;;2.43;;
3843;SDS011;1937;51.444;6.484;2023-03-23T08:24:34;5.03;;;2.93;;
3843;SDS011;1937;51.444;6.484;2023-03-23T08:27:03;5.77;;;2.20;;
3843;SDS011;1937;51.444;6.484;2023-03-23T08:29:34;5.27;;;2.20;;
3843;SDS011;1937;51.444;6.484;2023-03-23T08:32:03;4.90;;;2.10;;
3843;SDS011;1937;51.444;6.484;2023-03-23T08:34:32;4.97;;;2.60;;
3843;SDS011;1937;51.444;6.484;2023-03-23T08:37:00;2.50;;;2.10;;
3843;SDS011;1937;51.444;6.484;2023-03-23T08:39:29;3.40;;;2.47;;
3843;SDS011;1937;51.444;6.484;2023-03-23T08:41:58;5.53;;;2.50;;
3843;SDS011;1937;51.444;6.484;2023-03-23T08:44:27;6.30;;;2.67;;
3843;SDS011;1937;51.444;6.484;2023-03-23T08:46:57;4.03;;;1.97;;
3843;SDS011;1937;51.444;6.484;2023-03-23T08:49:28;5.73;;;2.50;;
3843;SDS011;1937;51.444;6.484;2023-03-23T08:51:57;6.53;;;2.27;;
3843;SDS011;1937;51.444;6.484;2023-03-23T08:54:30;4.87;;;2.20;;
3843;SDS011;1937;51.444;6.484;2023-03-23T08:56:59;5.60;;;2.37;;
3843;SDS011;1937;51.444;6.484;2023-03-23T08:59:29;14.30;;;2.00;;
3843;SDS011;1937;51.444;6.484;2023-03-23T09:01:59;8.87;;;2.53;;
3843;SDS011;1937;51.444;6.484;2023-03-23T09:04:27;6.37;;;2.17;;
3843;SDS011;1937;51.444;6.484;2023-03-23T09:06:56;6.00;;;2.70;;
3843;SDS011;1937;51.444;6.484;2023-03-23T09:09:25;1.77;;;1.20;;
3843;SDS011;1937;51.444;6.484;2023-03-23T09:11:53;2.97;;;1.50;;
3843;SDS011;1937;51.444;6.484;2023-03-23T09:14:21;4.70;;;1.40;;
3843;SDS011;1937;51.444;6.484;2023-03-23T09:16:50;3.53;;;2.17;;
3843;SDS011;1937;51.444;6.484;2023-03-23T09:19:20;3.07;;;2.03;;
3843;SDS011;1937;51.444;6.484;2023-03-23T09:21:49;4.97;;;2.83;;
3843;SDS011;1937;51.444;6.484;2023-03-23T09:24:17;1.90;;;1.60;;
3843;SDS011;1937;51.444;6.484;2023-03-23T09:26:47;4.63;;;2.07;;
3843;SDS011;1937;51.444;6.484;2023-03-23T09:29:15;5.13;;;1.90;;
3843;SDS011;1937;51.444;6.484;2023-03-23T09:31:46;4.43;;;2.33;;
3843;SDS011;1937;51.444;6.484;2023-03-23T09:34:14;3.00;;;2.30;;
3843;SDS011;1937;51.444;6.484;2023-03-23T09:36:44;4.37;;;2.03;;
3843;SDS011;1937;51.444;6.484;2023-03-23T09:39:13;4.67;;;1.70;;
3843;SDS011;1937;51.444;6.484;2023-03-23T09:41:51;2.10;;;1.40;;
3843;SDS011;1937;51.444;6.484;2023-03-23T09:44:28;2.13;;;1.10;;
3843;SDS011;1937;51.444;6.484;2023-03-23T09:47:10;2.43;;;1.40;;
3843;SDS011;1937;51.444;6.484;2023-03-23T09:49:50;3.63;;;1.50;;
3843;SDS011;1937;51.444;6.484;2023-03-23T09:52:26;3.40;;;1.57;;
3843;SDS011;1937;51.444;6.484;2023-03-23T09:55:00;2.50;;;1.83;;
3843;SDS011;1937;51.444;6.484;2023-03-23T09:57:30;1.53;;;1.10;;
3843;SDS011;1937;51.444;6.484;2023-03-23T10:00:09;1.50;;;1.40;;
3843;SDS011;1937;51.444;6.484;2023-03-23T10:02:43;1.67;;;1.57;;
3843;SDS011;1937;51.444;6.484;2023-03-23T10:05:29;2.80;;;1.70;;
3843;SDS011;1937;51.444;6.484;2023-03-23T10:08:01;7.33;;;1.70;;
3843;SDS011;1937;51.444;6.484;2023-03-23T10:10:40;9.10;;;2.27;;
3843;SDS011;1937;51.444;6.484;2023-03-23T10:13:17;11.33;;;2.07;;
3843;SDS011;1937;51.444;6.484;2023-03-23T10:15:48;2.07;;;1.67;;
3843;SDS011;1937;51.444;6.484;2023-03-23T10:18:19;3.43;;;1.70;;
3843;SDS011;1937;51.444;6.484;2023-03-23T10:20:53;2.70;;;1.70;;
3843;SDS011;1937;51.444;6.484;2023-03-23T10:23:34;4.47;;;2.00;;
3843;SDS011;1937;51.444;6.484;2023-03-23T10:26:10;9.70;;;1.97;;
3843;SDS011;1937;51.444;6.484;2023-03-23T10:30:13;2.90;;;1.70;;
3843;SDS011;1937;51.444;6.484;2023-03-23T10:32:48;2.93;;;1.87;;
3843;SDS011;1937;51.444;6.484;2023-03-23T10:35:22;4.17;;;1.70;;
3843;SDS011;1937;51.444;6.484;2023-03-23T10:37:58;1.80;;;1.53;;
3843;SDS011;1937;51.444;6.484;2023-03-23T10:40:28;2.90;;;2.00;;
3843;SDS011;1937;51.444;6.484;2023-03-23T10:43:00;5.07;;;1.80;;
3843;SDS011;1937;51.444;6.484;2023-03-23T10:45:30;1.90;;;1.50;;
3843;SDS011;1937;51.444;6.484;2023-03-23T10:48:01;2.30;;;1.63;;
3843;SDS011;1937;51.444;6.484;2023-03-23T10:50:37;4.40;;;2.60;;
3843;SDS011;1937;51.444;6.484;2023-03-23T10:53:12;4.70;;;1.37;;
3843;SDS011;1937;51.444;6.484;2023-03-23T10:55:44;4.73;;;1.50;;
3843;SDS011;1937;51.444;6.484;2023-03-23T10:58:23;1.87;;;1.50;;
3843;SDS011;1937;51.444;6.484;2023-03-23T11:00:55;2.70;;;1.50;;
3843;SDS011;1937;51.444;6.484;2023-03-23T11:03:28;6.57;;;1.37;;
3843;SDS011;1937;51.444;6.484;2023-03-23T11:06:05;3.20;;;1.87;;
3843;SDS011;1937;51.444;6.484;2023-03-23T11:08:35;3.97;;;1.60;;
3843;SDS011;1937;51.444;6.484;2023-03-23T11:11:15;3.70;;;1.50;;
3843;SDS011;1937;51.444;6.484;2023-03-23T11:13:47;1.57;;;1.30;;
3843;SDS011;1937;51.444;6.484;2023-03-23T11:16:24;1.40;;;1.30;;
3843;SDS011;1937;51.444;6.484;2023-03-23T11:18:55;3.07;;;1.73;;
3843;SDS011;1937;51.444;6.484;2023-03-23T11:21:26;4.57;;;1.33;;
3843;SDS011;1937;51.444;6.484;2023-03-23T11:23:58;2.60;;;1.47;;
3843;SDS011;1937;51.444;6.484;2023-03-23T11:26:28;1.60;;;1.50;;
3843;SDS011;1937;51.444;6.484;2023-03-23T11:28:59;3.27;;;1.30;;
3843;SDS011;1937;51.444;6.484;2023-03-23T11:31:33;1.93;;;1.70;;
3843;SDS011;1937;51.444;6.484;2023-03-23T11:34:04;1.83;;;1.37;;
3843;SDS011;1937;51.444;6.484;2023-03-23T11:36:36;4.57;;;1.40;;
3843;SDS011;1937;51.444;6.484;2023-03-23T11:39:18;3.63;;;1.47;;
3843;SDS011;1937;51.444;6.484;2023-03-23T11:41:47;1.33;;;1.23;;
3843;SDS011;1937;51.444;6.484;2023-03-23T11:44:16;1.27;;;1.13;;
3843;SDS011;1937;51.444;6.484;2023-03-23T11:46:49;4.20;;;1.37;;
3843;SDS011;1937;51.444;6.484;2023-03-23T11:49:33;4.90;;;1.77;;
3843;SDS011;1937;51.444;6.484;2023-03-23T11:52:11;6.03;;;1.97;;
3843;SDS011;1937;51.444;6.484;2023-03-23T11:54:46;1.27;;;1.17;;
3843;SDS011;1937;51.444;6.484;2023-03-23T11:57:20;1.63;;;1.50;;
3843;SDS011;1937;51.444;6.484;2023-03-23T11:59:49;1.40;;;1.30;;
3843;SDS011;1937;51.444;6.484;2023-03-23T12:02:24;3.87;;;2.33;;
3843;SDS011;1937;51.444;6.484;2023-03-23T12:08:02;2.30;;;1.60;;
3843;SDS011;1937;51.444;6.484;2023-03-23T12:10:44;2.00;;;1.40;;
3843;SDS011;1937;51.444;6.484;2023-03-23T12:13:26;6.17;;;2.00;;
3843;SDS011;1937;51.444;6.484;2023-03-23T12:16:06;1.63;;;1.40;;
3843;SDS011;1937;51.444;6.484;2023-03-23T12:18:46;2.00;;;1.60;;
3843;SDS011;1937;51.444;6.484;2023-03-23T12:21:23;1.67;;;1.10;;
3843;SDS011;1937;51.444;6.484;2023-03-23T12:24:00;2.30;;;1.23;;
3843;SDS011;1937;51.444;6.484;2023-03-23T12:26:37;4.63;;;1.70;;
3843;SDS011;1937;51.444;6.484;2023-03-23T12:35:07;2.00;;;1.90;;
3843;SDS011;1937;51.444;6.484;2023-03-23T12:37:49;3.30;;;1.87;;
3843;SDS011;1937;51.444;6.484;2023-03-23T12:40:32;3.47;;;1.77;;
3843;SDS011;1937;51.444;6.484;2023-03-23T12:43:12;5.00;;;2.23;;
3843;SDS011;1937;51.444;6.484;2023-03-23T12:45:50;4.20;;;2.03;;
3843;SDS011;1937;51.444;6.484;2023-03-23T12:48:26;2.60;;;1.80;;
3843;SDS011;1937;51.444;6.484;2023-03-23T12:51:10;2.63;;;1.90;;
3843;SDS011;1937;51.444;6.484;2023-03-23T12:53:44;4.70;;;2.67;;
3843;SDS011;1937;51.444;6.484;2023-03-23T12:56:17;2.23;;;2.00;;
3843;SDS011;1937;51.444;6.484;2023-03-23T12:58:51;1.97;;;1.80;;
3843;SDS011;1937;51.444;6.484;2023-03-23T13:01:26;2.40;;;1.97;;
3843;SDS011;1937;51.444;6.484;2023-03-23T13:03:59;5.00;;;2.30;;
3843;SDS011;1937;51.444;6.484;2023-03-23T13:06:34;4.60;;;2.57;;
3843;SDS011;1937;51.444;6.484;2023-03-23T13:09:05;3.80;;;2.37;;
3843;SDS011;1937;51.444;6.484;2023-03-23T13:11:38;6.70;;;2.67;;
3843;SDS011;1937;51.444;6.484;2023-03-23T13:14:15;3.83;;;2.57;;
3843;SDS011;1937;51.444;6.484;2023-03-23T13:16:49;4.13;;;2.50;;
3843;SDS011;1937;51.444;6.484;2023-03-23T13:19:23;5.67;;;4.13;;
3843;SDS011;1937;51.444;6.484;2023-03-23T13:22:00;4.80;;;2.53;;
3843;SDS011;1937;51.444;6.484;2023-03-23T13:24:33;3.07;;;2.70;;
3843;SDS011;1937;51.444;6.484;2023-03-23T13:27:06;5.07;;;2.50;;
3843;SDS011;1937;51.444;6.484;2023-03-23T13:29:43;2.77;;;2.50;;
3843;SDS011;1937;51.444;6.484;2023-03-23T13:32:15;3.90;;;2.67;;
3843;SDS011;1937;51.444;6.484;2023-03-23T13:34:45;3.80;;;2.40;;
3843;SDS011;1937;51.444;6.484;2023-03-23T13:37:21;3.20;;;2.10;;
3843;SDS011;1937;51.444;6.484;2023-03-23T13:39:52;6.57;;;3.30;;
3843;SDS011;1937;51.444;6.484;2023-03-23T13:42:24;4.33;;;2.70;;
3843;SDS011;1937;51.444;6.484;2023-03-23T13:44:56;4.07;;;2.83;;
3843;SDS011;1937;51.444;6.484;2023-03-23T13:47:36;5.80;;;2.80;;
3843;SDS011;1937;51.444;6.484;2023-03-23T13:50:11;3.50;;;2.40;;
3843;SDS011;1937;51.444;6.484;2023-03-23T13:52:57;6.57;;;2.80;;
3843;SDS011;1937;51.444;6.484;2023-03-23T13:58:23;4.37;;;2.57;;
3843;SDS011;1937;51.444;6.484;2023-03-23T14:01:09;6.00;;;2.20;;
3843;SDS011;1937;51.444;6.484;2023-03-23T14:03:41;5.87;;;3.00;;
3843;SDS011;1937;51.444;6.484;2023-03-23T14:06:15;5.90;;;2.77;;
3843;SDS011;1937;51.444;6.484;2023-03-23T14:08:48;4.13;;;2.90;;
3843;SDS011;1937;51.444;6.484;2023-03-23T14:11:20;6.43;;;2.63;;
3843;SDS011;1937;51.444;6.484;2023-03-23T14:13:59;7.30;;;2.97;;
3843;SDS011;1937;51.444;6.484;2023-03-23T14:16:36;3.57;;;3.27;;
3843;SDS011;1937;51.444;6.484;2023-03-23T14:19:14;3.83;;;3.20;;
3843;SDS011;1937;51.444;6.484;2023-03-23T14:21:49;4.67;;;3.53;;
3843;SDS011;1937;51.444;6.484;2023-03-23T14:24:22;6.40;;;2.80;;
3843;SDS011;1937;51.444;6.484;2023-03-23T14:26:53;4.20;;;3.10;;
3843;SDS011;1937;51.444;6.484;2023-03-23T14:29:34;3.30;;;2.53;;
3843;SDS011;1937;51.444;6.484;2023-03-23T14:32:02;5.40;;;3.00;;
3843;SDS011;1937;51.444;6.484;2023-03-23T14:34:34;3.27;;;2.20;;
3843;SDS011;1937;51.444;6.484;2023-03-23T14:37:03;4.23;;;2.60;;
3843;SDS011;1937;51.444;6.484;2023-03-23T14:39:37;4.93;;;3.00;;
3843;SDS011;1937;51.444;6.484;2023-03-23T14:42:06;3.30;;;2.40;;
3843;SDS011;1937;51.444;6.484;2023-03-23T14:44:40;3.97;;;2.40;;
3843;SDS011;1937;51.444;6.484;2023-03-23T14:47:13;4.60;;;2.17;;
3843;SDS011;1937;51.444;6.484;2023-03-23T14:49:46;4.03;;;2.50;;
3843;SDS011;1937;51.444;6.484;2023-03-23T14:52:18;3.23;;;2.10;;
3843;SDS011;1937;51.444;6.484;2023-03-23T14:54:51;4.70;;;2.40;;
3843;SDS011;1937;51.444;6.484;2023-03-23T14:57:25;3.43;;;2.97;;
3843;SDS011;1937;51.444;6.484;2023-03-23T14:59:55;3.57;;;2.40;;
3843;SDS011;1937;51.444;6.484;2023-03-23T15:02:25;2.17;;;1.90;;
3843;SDS011;1937;51.444;6.484;2023-03-23T15:04:58;4.03;;;2.07;;
3843;SDS011;1937;51.444;6.484;2023-03-23T15:07:30;4.83;;;2.03;;
3843;SDS011;1937;51.444;6.484;2023-03-23T15:10:04;2.23;;;1.90;;
3843;SDS011;1937;51.444;6.484;2023-03-23T15:12:35;3.20;;;1.60;;
3843;SDS011;1937;51.444;6.484;2023-03-23T15:15:05;2.97;;;2.20;;
3843;SDS011;1937;51.444;6.484;2023-03-23T15:17:44;3.67;;;1.73;;
3843;SDS011;1937;51.444;6.484;2023-03-23T15:20:19;6.83;;;2.23;;
3843;SDS011;1937;51.444;6.484;2023-03-23T15:22:51;3.73;;;2.40;;
3843;SDS011;1937;51.444;6.484;2023-03-23T15:25:22;4.37;;;2.60;;
3843;SDS011;1937;51.444;6.484;2023-03-23T15:27:56;8.30;;;2.73;;
3843;SDS011;1937;51.444;6.484;2023-03-23T15:30:33;2.13;;;1.93;;
3843;SDS011;1937;51.444;6.484;2023-03-23T15:33:13;3.60;;;1.60;;
3843;SDS011;1937;51.444;6.484;2023-03-23T15:35:45;6.23;;;2.17;;
3843;SDS011;1937;51.444;6.484;2023-03-23T15:38:17;3.37;;;2.00;;
3843;SDS011;1937;51.444;6.484;2023-03-23T15:40:50;3.97;;;2.07;;
3843;SDS011;1937;51.444;6.484;2023-03-23T15:43:21;4.37;;;2.10;;
3843;SDS011;1937;51.444;6.484;2023-03-23T15:45:55;5.10;;;2.00;;
3843;SDS011;1937;51.444;6.484;2023-03-23T15:48:28;6.27;;;2.73;;
3843;SDS011;1937;51.444;6.484;2023-03-23T15:50:58;9.80;;;2.80;;
3843;SDS011;1937;51.444;6.484;2023-03-23T15:53:29;7.03;;;2.40;;
3843;SDS011;1937;51.444;6.484;2023-03-23T15:56:01;6.53;;;2.73;;
3843;SDS011;1937;51.444;6.484;2023-03-23T15:58:31;5.70;;;2.67;;
3843;SDS011;1937;51.444;6.484;2023-03-23T16:01:01;3.70;;;2.40;;
3843;SDS011;1937;51.444;6.484;2023-03-23T16:03:33;3.10;;;2.20;;
3843;SDS011;1937;51.444;6.484;2023-03-23T16:06:05;3.80;;;2.53;;